sensor_id;sensor_type;location;lat;lon;timestamp;P1;durP1;ratioP1;P2;durP2;ratioP2
61038;SDS011;46919;45.816;3.104;2023-02-28T00:00:12;6.05;;;3.00;;
61038;SDS011;46919;45.816;3.104;2023-02-28T00:02:39;4.18;;;2.60;;
61038;SDS011;46919;45.816;3.104;2023-02-28T00:05:06;3.85;;;2.83;;
61038;SDS011;46919;45.816;3.104;2023-02-28T00:07:33;4.43;;;3.17;;
61038;SDS011;46919;45.816;3.104;2023-02-28T00:09:58;7.25;;;3.40;;
61038;SDS011;46919;45.816;3.104;2023-02-28T00:12:24;3.50;;;2.80;;
61038;SDS011;46919;45.816;3.104;2023-02-28T00:14:49;4.47;;;2.95;;
61038;SDS011;46919;45.816;3.104;2023-02-28T00:17:15;4.05;;;3.00;;
61038;SDS011;46919;45.816;3.104;2023-02-28T00:19:43;4.68;;;2.92;;
61038;SDS011;46919;45.816;3.104;2023-02-28T00:22:08;4.97;;;2.85;;
61038;SDS011;46919;45.816;3.104;2023-02-28T00:24:34;6.32;;;3.30;;
61038;SDS011;46919;45.816;3.104;2023-02-28T00:27:00;4.90;;;3.22;;
61038;SDS011;46919;45.816;3.104;2023-02-28T00:29:25;4.70;;;3.28;;
61038;SDS011;46919;45.816;3.104;2023-02-28T00:31:50;5.30;;;3.42;;
61038;SDS011;46919;45.816;3.104;2023-02-28T00:34:16;4.60;;;3.28;;
61038;SDS011;46919;45.816;3.104;2023-02-28T00:36:41;5.63;;;3.10;;
61038;SDS011;46919;45.816;3.104;2023-02-28T00:39:10;5.68;;;3.90;;
61038;SDS011;46919;45.816;3.104;2023-02-28T00:41:36;5.25;;;3.85;;
61038;SDS011;46919;45.816;3.104;2023-02-28T00:44:02;6.90;;;3.38;;
61038;SDS011;46919;45.816;3.104;2023-02-28T00:46:27;8.23;;;4.05;;
61038;SDS011;46919;45.816;3.104;2023-02-28T00:48:53;5.05;;;3.45;;
61038;SDS011;46919;45.816;3.104;2023-02-28T00:51:18;6.13;;;3.10;;
61038;SDS011;46919;45.816;3.104;2023-02-28T00:53:44;5.20;;;3.45;;
61038;SDS011;46919;45.816;3.104;2023-02-28T00:56:09;6.45;;;3.90;;
61038;SDS011;46919;45.816;3.104;2023-02-28T00:58:34;6.47;;;3.35;;
61038;SDS011;46919;45.816;3.104;2023-02-28T01:01:00;5.70;;;3.38;;
61038;SDS011;46919;45.816;3.104;2023-02-28T01:03:25;4.72;;;2.95;;
61038;SDS011;46919;45.816;3.104;2023-02-28T01:05:51;4.70;;;3.22;;
61038;SDS011;46919;45.816;3.104;2023-02-28T01:08:18;5.57;;;3.25;;
61038;SDS011;46919;45.816;3.104;2023-02-28T01:10:44;4.28;;;3.00;;
61038;SDS011;46919;45.816;3.104;2023-02-28T01:13:10;4.63;;;3.42;;
61038;SDS011;46919;45.816;3.104;2023-02-28T01:15:36;5.13;;;3.10;;
61038;SDS011;46919;45.816;3.104;2023-02-28T01:18:04;5.32;;;2.97;;
61038;SDS011;46919;45.816;3.104;2023-02-28T01:20:29;6.38;;;3.45;;
61038;SDS011;46919;45.816;3.104;2023-02-28T01:22:55;3.88;;;2.90;;
61038;SDS011;46919;45.816;3.104;2023-02-28T01:25:20;4.80;;;2.95;;
61038;SDS011;46919;45.816;3.104;2023-02-28T01:27:46;2.92;;;2.50;;
61038;SDS011;46919;45.816;3.104;2023-02-28T01:30:11;4.38;;;2.97;;
61038;SDS011;46919;45.816;3.104;2023-02-28T01:32:37;5.60;;;3.20;;
61038;SDS011;46919;45.816;3.104;2023-02-28T01:35:02;5.20;;;3.05;;
61038;SDS011;46919;45.816;3.104;2023-02-28T01:37:28;4.20;;;2.80;;
61038;SDS011;46919;45.816;3.104;2023-02-28T01:39:53;3.88;;;2.75;;
61038;SDS011;46919;45.816;3.104;2023-02-28T01:42:19;4.72;;;3.08;;
61038;SDS011;46919;45.816;3.104;2023-02-28T01:44:58;3.55;;;2.83;;
61038;SDS011;46919;45.816;3.104;2023-02-28T01:47:35;4.88;;;3.00;;
61038;SDS011;46919;45.816;3.104;2023-02-28T01:50:04;4.93;;;3.47;;
61038;SDS011;46919;45.816;3.104;2023-02-28T01:52:32;5.57;;;3.15;;
61038;SDS011;46919;45.816;3.104;2023-02-28T01:54:59;6.13;;;3.10;;
61038;SDS011;46919;45.816;3.104;2023-02-28T01:57:32;3.92;;;2.83;;
61038;SDS011;46919;45.816;3.104;2023-02-28T02:00:07;6.63;;;3.13;;
61038;SDS011;46919;45.816;3.104;2023-02-28T02:02:35;4.88;;;2.83;;
61038;SDS011;46919;45.816;3.104;2023-02-28T02:07:30;5.47;;;3.22;;
61038;SDS011;46919;45.816;3.104;2023-02-28T02:10:05;5.55;;;3.00;;
61038;SDS011;46919;45.816;3.104;2023-02-28T02:17:42;6.07;;;3.17;;
61038;SDS011;46919;45.816;3.104;2023-02-28T02:20:27;4.15;;;2.80;;
61038;SDS011;46919;45.816;3.104;2023-02-28T02:29:06;4.18;;;2.90;;
61038;SDS011;46919;45.816;3.104;2023-02-28T02:37:15;4.43;;;2.92;;
61038;SDS011;46919;45.816;3.104;2023-02-28T02:39:50;4.93;;;3.03;;
61038;SDS011;46919;45.816;3.104;2023-02-28T02:42:45;5.25;;;3.05;;
61038;SDS011;46919;45.816;3.104;2023-02-28T02:45:25;5.07;;;3.00;;
61038;SDS011;46919;45.816;3.104;2023-02-28T02:48:00;5.22;;;3.13;;
61038;SDS011;46919;45.816;3.104;2023-02-28T02:50:42;3.90;;;3.05;;
61038;SDS011;46919;45.816;3.104;2023-02-28T02:53:10;5.60;;;3.05;;
61038;SDS011;46919;45.816;3.104;2023-02-28T02:55:41;3.95;;;3.10;;
61038;SDS011;46919;45.816;3.104;2023-02-28T02:58:11;4.75;;;3.03;;
61038;SDS011;46919;45.816;3.104;2023-02-28T03:00:46;4.80;;;3.05;;
61038;SDS011;46919;45.816;3.104;2023-02-28T03:03:16;5.30;;;3.15;;
61038;SDS011;46919;45.816;3.104;2023-02-28T03:05:49;4.93;;;2.97;;
61038;SDS011;46919;45.816;3.104;2023-02-28T03:08:16;4.93;;;3.00;;
61038;SDS011;46919;45.816;3.104;2023-02-28T03:10:43;4.55;;;3.17;;
61038;SDS011;46919;45.816;3.104;2023-02-28T03:16:03;4.55;;;2.70;;
61038;SDS011;46919;45.816;3.104;2023-02-28T03:18:52;4.68;;;2.55;;
61038;SDS011;46919;45.816;3.104;2023-02-28T03:21:40;4.10;;;2.60;;
61038;SDS011;46919;45.816;3.104;2023-02-28T03:24:15;3.00;;;2.25;;
61038;SDS011;46919;45.816;3.104;2023-02-28T03:26:53;11.88;;;2.83;;
61038;SDS011;46919;45.816;3.104;2023-02-28T03:29:32;5.10;;;2.50;;
61038;SDS011;46919;45.816;3.104;2023-02-28T03:32:17;2.85;;;2.53;;
61038;SDS011;46919;45.816;3.104;2023-02-28T03:34:56;3.80;;;2.42;;
61038;SDS011;46919;45.816;3.104;2023-02-28T03:37:38;2.97;;;2.53;;
61038;SDS011;46919;45.816;3.104;2023-02-28T03:40:11;3.45;;;2.50;;
61038;SDS011;46919;45.816;3.104;2023-02-28T03:42:39;3.47;;;2.58;;
61038;SDS011;46919;45.816;3.104;2023-02-28T03:45:16;3.42;;;2.08;;
61038;SDS011;46919;45.816;3.104;2023-02-28T03:47:58;3.38;;;2.00;;
61038;SDS011;46919;45.816;3.104;2023-02-28T03:50:38;3.58;;;2.35;;
61038;SDS011;46919;45.816;3.104;2023-02-28T03:56:32;2.88;;;2.00;;
61038;SDS011;46919;45.816;3.104;2023-02-28T03:59:22;4.28;;;2.30;;
61038;SDS011;46919;45.816;3.104;2023-02-28T04:01:53;3.97;;;2.10;;
61038;SDS011;46919;45.816;3.104;2023-02-28T04:04:20;2.75;;;2.40;;
61038;SDS011;46919;45.816;3.104;2023-02-28T04:06:45;2.60;;;2.00;;
61038;SDS011;46919;45.816;3.104;2023-02-28T04:09:15;3.45;;;2.00;;
61038;SDS011;46919;45.816;3.104;2023-02-28T04:11:50;6.78;;;2.20;;
61038;SDS011;46919;45.816;3.104;2023-02-28T04:14:17;4.70;;;1.77;;
61038;SDS011;46919;45.816;3.104;2023-02-28T04:16:43;5.07;;;2.50;;
61038;SDS011;46919;45.816;3.104;2023-02-28T04:19:10;4.10;;;2.30;;
61038;SDS011;46919;45.816;3.104;2023-02-28T04:21:41;3.05;;;2.08;;
61038;SDS011;46919;45.816;3.104;2023-02-28T04:24:09;4.53;;;2.20;;
61038;SDS011;46919;45.816;3.104;2023-02-28T04:26:39;3.78;;;2.05;;
61038;SDS011;46919;45.816;3.104;2023-02-28T04:29:08;2.97;;;2.20;;
61038;SDS011;46919;45.816;3.104;2023-02-28T04:31:34;4.57;;;2.30;;
61038;SDS011;46919;45.816;3.104;2023-02-28T04:34:00;3.90;;;2.05;;
61038;SDS011;46919;45.816;3.104;2023-02-28T04:36:25;3.78;;;1.85;;
61038;SDS011;46919;45.816;3.104;2023-02-28T04:38:51;3.85;;;2.03;;
61038;SDS011;46919;45.816;3.104;2023-02-28T04:41:18;4.45;;;2.10;;
61038;SDS011;46919;45.816;3.104;2023-02-28T04:43:44;2.67;;;2.00;;
61038;SDS011;46919;45.816;3.104;2023-02-28T04:46:09;3.60;;;1.90;;
61038;SDS011;46919;45.816;3.104;2023-02-28T04:48:36;3.15;;;1.85;;
61038;SDS011;46919;45.816;3.104;2023-02-28T04:51:04;3.50;;;1.90;;
61038;SDS011;46919;45.816;3.104;2023-02-28T04:53:34;4.20;;;2.25;;
61038;SDS011;46919;45.816;3.104;2023-02-28T04:56:01;3.25;;;2.00;;
61038;SDS011;46919;45.816;3.104;2023-02-28T04:58:27;5.18;;;2.10;;
61038;SDS011;46919;45.816;3.104;2023-02-28T05:00:53;3.45;;;2.10;;
61038;SDS011;46919;45.816;3.104;2023-02-28T05:03:19;2.78;;;2.10;;
61038;SDS011;46919;45.816;3.104;2023-02-28T05:05:48;3.40;;;2.10;;
61038;SDS011;46919;45.816;3.104;2023-02-28T05:08:13;2.65;;;1.95;;
61038;SDS011;46919;45.816;3.104;2023-02-28T05:10:39;5.22;;;1.95;;
61038;SDS011;46919;45.816;3.104;2023-02-28T05:13:04;4.20;;;2.20;;
61038;SDS011;46919;45.816;3.104;2023-02-28T05:15:30;3.72;;;2.10;;
61038;SDS011;46919;45.816;3.104;2023-02-28T05:17:55;3.47;;;2.20;;
61038;SDS011;46919;45.816;3.104;2023-02-28T05:20:21;2.92;;;2.15;;
61038;SDS011;46919;45.816;3.104;2023-02-28T05:22:46;3.55;;;1.85;;
61038;SDS011;46919;45.816;3.104;2023-02-28T05:25:13;3.22;;;2.13;;
61038;SDS011;46919;45.816;3.104;2023-02-28T05:27:43;3.03;;;1.98;;
61038;SDS011;46919;45.816;3.104;2023-02-28T05:30:09;3.47;;;2.08;;
61038;SDS011;46919;45.816;3.104;2023-02-28T05:32:38;2.72;;;1.80;;
61038;SDS011;46919;45.816;3.104;2023-02-28T05:35:08;5.10;;;1.95;;
61038;SDS011;46919;45.816;3.104;2023-02-28T05:37:35;3.85;;;1.90;;
61038;SDS011;46919;45.816;3.104;2023-02-28T05:40:01;4.68;;;2.10;;
61038;SDS011;46919;45.816;3.104;2023-02-28T05:42:26;3.50;;;2.40;;
61038;SDS011;46919;45.816;3.104;2023-02-28T05:44:52;4.10;;;2.20;;
61038;SDS011;46919;45.816;3.104;2023-02-28T05:47:17;3.38;;;2.22;;
61038;SDS011;46919;45.816;3.104;2023-02-28T05:49:43;3.40;;;2.17;;
61038;SDS011;46919;45.816;3.104;2023-02-28T05:52:08;3.53;;;2.15;;
61038;SDS011;46919;45.816;3.104;2023-02-28T05:54:33;4.47;;;2.30;;
61038;SDS011;46919;45.816;3.104;2023-02-28T05:56:59;3.00;;;2.22;;
61038;SDS011;46919;45.816;3.104;2023-02-28T05:59:24;2.67;;;2.10;;
61038;SDS011;46919;45.816;3.104;2023-02-28T06:01:50;3.13;;;2.28;;
61038;SDS011;46919;45.816;3.104;2023-02-28T06:04:17;3.83;;;2.22;;
61038;SDS011;46919;45.816;3.104;2023-02-28T06:06:47;2.97;;;2.38;;
61038;SDS011;46919;45.816;3.104;2023-02-28T06:09:14;3.40;;;2.70;;
61038;SDS011;46919;45.816;3.104;2023-02-28T06:11:40;3.63;;;2.42;;
61038;SDS011;46919;45.816;3.104;2023-02-28T06:14:06;3.42;;;2.25;;
61038;SDS011;46919;45.816;3.104;2023-02-28T06:16:33;3.30;;;1.98;;
61038;SDS011;46919;45.816;3.104;2023-02-28T06:19:00;3.28;;;2.35;;
61038;SDS011;46919;45.816;3.104;2023-02-28T06:21:27;5.25;;;2.55;;
61038;SDS011;46919;45.816;3.104;2023-02-28T06:23:54;4.15;;;2.38;;
61038;SDS011;46919;45.816;3.104;2023-02-28T06:26:20;4.55;;;2.95;;
61038;SDS011;46919;45.816;3.104;2023-02-28T06:28:46;3.17;;;2.28;;
61038;SDS011;46919;45.816;3.104;2023-02-28T06:31:13;4.32;;;2.70;;
61038;SDS011;46919;45.816;3.104;2023-02-28T06:33:40;2.63;;;2.13;;
61038;SDS011;46919;45.816;3.104;2023-02-28T06:36:07;3.05;;;2.30;;
61038;SDS011;46919;45.816;3.104;2023-02-28T06:38:34;3.92;;;2.38;;
61038;SDS011;46919;45.816;3.104;2023-02-28T06:41:00;3.63;;;2.40;;
61038;SDS011;46919;45.816;3.104;2023-02-28T06:43:29;4.05;;;2.25;;
61038;SDS011;46919;45.816;3.104;2023-02-28T06:45:57;4.20;;;2.55;;
61038;SDS011;46919;45.816;3.104;2023-02-28T06:48:25;3.60;;;2.25;;
61038;SDS011;46919;45.816;3.104;2023-02-28T06:50:51;3.50;;;2.17;;
61038;SDS011;46919;45.816;3.104;2023-02-28T06:53:17;4.85;;;2.67;;
61038;SDS011;46919;45.816;3.104;2023-02-28T06:55:42;4.05;;;2.60;;
61038;SDS011;46919;45.816;3.104;2023-02-28T06:58:08;6.10;;;2.60;;
61038;SDS011;46919;45.816;3.104;2023-02-28T07:00:43;4.15;;;2.30;;
61038;SDS011;46919;45.816;3.104;2023-02-28T07:03:09;4.38;;;2.60;;
61038;SDS011;46919;45.816;3.104;2023-02-28T07:05:36;4.10;;;2.47;;
61038;SDS011;46919;45.816;3.104;2023-02-28T07:08:03;8.05;;;2.80;;
61038;SDS011;46919;45.816;3.104;2023-02-28T07:10:29;3.35;;;2.50;;
61038;SDS011;46919;45.816;3.104;2023-02-28T07:12:55;6.75;;;3.22;;
61038;SDS011;46919;45.816;3.104;2023-02-28T07:15:20;3.05;;;2.15;;
61038;SDS011;46919;45.816;3.104;2023-02-28T07:17:46;4.03;;;2.70;;
61038;SDS011;46919;45.816;3.104;2023-02-28T07:20:11;4.95;;;2.72;;
61038;SDS011;46919;45.816;3.104;2023-02-28T07:22:37;5.13;;;2.92;;
61038;SDS011;46919;45.816;3.104;2023-02-28T07:25:04;3.53;;;2.35;;
61038;SDS011;46919;45.816;3.104;2023-02-28T07:27:30;3.45;;;2.65;;
61038;SDS011;46919;45.816;3.104;2023-02-28T07:29:55;2.92;;;2.20;;
61038;SDS011;46919;45.816;3.104;2023-02-28T07:32:21;3.78;;;2.50;;
61038;SDS011;46919;45.816;3.104;2023-02-28T07:34:46;5.18;;;2.35;;
61038;SDS011;46919;45.816;3.104;2023-02-28T07:37:12;5.93;;;2.67;;
61038;SDS011;46919;45.816;3.104;2023-02-28T07:39:37;3.83;;;2.55;;
61038;SDS011;46919;45.816;3.104;2023-02-28T07:42:06;6.57;;;2.90;;
61038;SDS011;46919;45.816;3.104;2023-02-28T07:44:34;3.95;;;2.63;;
61038;SDS011;46919;45.816;3.104;2023-02-28T07:47:00;2.90;;;2.33;;
61038;SDS011;46919;45.816;3.104;2023-02-28T07:49:25;2.75;;;2.22;;
61038;SDS011;46919;45.816;3.104;2023-02-28T07:51:51;3.72;;;2.53;;
61038;SDS011;46919;45.816;3.104;2023-02-28T07:54:16;4.57;;;3.10;;
61038;SDS011;46919;45.816;3.104;2023-02-28T07:56:42;3.80;;;3.10;;
61038;SDS011;46919;45.816;3.104;2023-02-28T07:59:07;6.57;;;3.08;;
61038;SDS011;46919;45.816;3.104;2023-02-28T08:01:32;6.32;;;3.83;;
61038;SDS011;46919;45.816;3.104;2023-02-28T08:03:58;6.03;;;3.65;;
61038;SDS011;46919;45.816;3.104;2023-02-28T08:06:24;4.68;;;2.60;;
61038;SDS011;46919;45.816;3.104;2023-02-28T08:08:51;3.58;;;2.40;;
61038;SDS011;46919;45.816;3.104;2023-02-28T08:11:18;4.93;;;2.28;;
61038;SDS011;46919;45.816;3.104;2023-02-28T08:13:44;3.30;;;2.30;;
61038;SDS011;46919;45.816;3.104;2023-02-28T08:16:11;2.97;;;2.22;;
61038;SDS011;46919;45.816;3.104;2023-02-28T08:18:40;5.63;;;2.35;;
61038;SDS011;46919;45.816;3.104;2023-02-28T08:21:09;3.65;;;2.78;;
61038;SDS011;46919;45.816;3.104;2023-02-28T08:23:35;4.03;;;2.88;;
61038;SDS011;46919;45.816;3.104;2023-02-28T08:26:00;4.22;;;2.50;;
61038;SDS011;46919;45.816;3.104;2023-02-28T08:28:26;2.83;;;2.15;;
61038;SDS011;46919;45.816;3.104;2023-02-28T08:30:51;3.67;;;2.28;;
61038;SDS011;46919;45.816;3.104;2023-02-28T08:33:17;3.80;;;2.40;;
61038;SDS011;46919;45.816;3.104;2023-02-28T08:35:42;4.20;;;3.05;;
61038;SDS011;46919;45.816;3.104;2023-02-28T08:38:08;5.15;;;3.03;;
61038;SDS011;46919;45.816;3.104;2023-02-28T08:40:33;4.50;;;2.78;;
61038;SDS011;46919;45.816;3.104;2023-02-28T08:42:58;3.72;;;3.08;;
61038;SDS011;46919;45.816;3.104;2023-02-28T08:45:24;7.68;;;2.55;;
61038;SDS011;46919;45.816;3.104;2023-02-28T08:47:50;4.88;;;3.53;;
61038;SDS011;46919;45.816;3.104;2023-02-28T08:50:17;8.88;;;4.28;;
61038;SDS011;46919;45.816;3.104;2023-02-28T08:52:43;4.30;;;2.95;;
61038;SDS011;46919;45.816;3.104;2023-02-28T08:55:09;5.03;;;2.75;;
61038;SDS011;46919;45.816;3.104;2023-02-28T08:57:35;3.47;;;2.22;;
61038;SDS011;46919;45.816;3.104;2023-02-28T09:00:00;5.15;;;2.97;;
61038;SDS011;46919;45.816;3.104;2023-02-28T09:02:29;5.55;;;2.95;;
61038;SDS011;46919;45.816;3.104;2023-02-28T09:04:55;4.30;;;3.45;;
61038;SDS011;46919;45.816;3.104;2023-02-28T09:07:20;6.15;;;3.08;;
61038;SDS011;46919;45.816;3.104;2023-02-28T09:09:46;8.32;;;4.82;;
61038;SDS011;46919;45.816;3.104;2023-02-28T09:12:23;8.40;;;4.88;;
61038;SDS011;46919;45.816;3.104;2023-02-28T09:14:51;8.32;;;4.70;;
61038;SDS011;46919;45.816;3.104;2023-02-28T09:17:17;4.55;;;3.10;;
61038;SDS011;46919;45.816;3.104;2023-02-28T09:19:43;4.75;;;2.78;;
61038;SDS011;46919;45.816;3.104;2023-02-28T09:22:09;6.55;;;4.05;;
61038;SDS011;46919;45.816;3.104;2023-02-28T09:24:36;3.97;;;2.70;;
61038;SDS011;46919;45.816;3.104;2023-02-28T09:27:02;4.60;;;3.20;;
61038;SDS011;46919;45.816;3.104;2023-02-28T09:29:28;4.20;;;2.75;;
61038;SDS011;46919;45.816;3.104;2023-02-28T09:31:53;5.30;;;3.05;;
61038;SDS011;46919;45.816;3.104;2023-02-28T09:34:19;4.93;;;2.90;;
61038;SDS011;46919;45.816;3.104;2023-02-28T09:36:44;5.65;;;3.10;;
61038;SDS011;46919;45.816;3.104;2023-02-28T09:39:10;6.53;;;2.80;;
61038;SDS011;46919;45.816;3.104;2023-02-28T09:41:38;3.55;;;2.60;;
61038;SDS011;46919;45.816;3.104;2023-02-28T09:44:13;3.47;;;2.83;;
61038;SDS011;46919;45.816;3.104;2023-02-28T09:46:47;4.47;;;2.72;;
61038;SDS011;46919;45.816;3.104;2023-02-28T09:49:19;4.63;;;2.70;;
61038;SDS011;46919;45.816;3.104;2023-02-28T09:51:50;6.93;;;3.67;;
61038;SDS011;46919;45.816;3.104;2023-02-28T09:54:22;3.88;;;3.05;;
61038;SDS011;46919;45.816;3.104;2023-02-28T09:56:50;4.40;;;2.50;;
61038;SDS011;46919;45.816;3.104;2023-02-28T10:02:31;4.88;;;2.60;;
61038;SDS011;46919;45.816;3.104;2023-02-28T10:05:11;7.28;;;2.58;;
61038;SDS011;46919;45.816;3.104;2023-02-28T10:10:32;3.92;;;2.85;;
61038;SDS011;46919;45.816;3.104;2023-02-28T10:18:30;6.35;;;3.03;;
61038;SDS011;46919;45.816;3.104;2023-02-28T10:21:05;5.60;;;3.05;;
61038;SDS011;46919;45.816;3.104;2023-02-28T10:23:32;6.03;;;3.58;;
61038;SDS011;46919;45.816;3.104;2023-02-28T10:26:03;4.95;;;3.40;;
61038;SDS011;46919;45.816;3.104;2023-02-28T10:28:36;6.22;;;3.17;;
61038;SDS011;46919;45.816;3.104;2023-02-28T10:31:01;6.63;;;3.10;;
61038;SDS011;46919;45.816;3.104;2023-02-28T10:33:28;5.85;;;2.65;;
61038;SDS011;46919;45.816;3.104;2023-02-28T10:35:56;7.57;;;3.78;;
61038;SDS011;46919;45.816;3.104;2023-02-28T10:38:23;5.93;;;3.33;;
61038;SDS011;46919;45.816;3.104;2023-02-28T10:40:48;4.70;;;3.20;;
61038;SDS011;46919;45.816;3.104;2023-02-28T10:45:51;5.70;;;4.10;;
61038;SDS011;46919;45.816;3.104;2023-02-28T10:58:24;6.43;;;3.50;;
61038;SDS011;46919;45.816;3.104;2023-02-28T11:00:52;6.78;;;4.20;;
61038;SDS011;46919;45.816;3.104;2023-02-28T11:03:25;4.47;;;3.50;;
61038;SDS011;46919;45.816;3.104;2023-02-28T11:06:14;4.72;;;3.40;;
61038;SDS011;46919;45.816;3.104;2023-02-28T11:08:46;3.47;;;3.15;;
61038;SDS011;46919;45.816;3.104;2023-02-28T11:11:13;5.75;;;3.45;;
61038;SDS011;46919;45.816;3.104;2023-02-28T11:13:39;4.43;;;3.28;;
61038;SDS011;46919;45.816;3.104;2023-02-28T11:16:06;5.50;;;3.90;;
61038;SDS011;46919;45.816;3.104;2023-02-28T11:21:06;5.55;;;3.83;;
61038;SDS011;46919;45.816;3.104;2023-02-28T11:23:34;5.93;;;4.20;;
61038;SDS011;46919;45.816;3.104;2023-02-28T11:26:03;5.82;;;3.85;;
61038;SDS011;46919;45.816;3.104;2023-02-28T11:28:36;6.55;;;3.92;;
61038;SDS011;46919;45.816;3.104;2023-02-28T11:33:42;6.00;;;3.80;;
61038;SDS011;46919;45.816;3.104;2023-02-28T11:36:24;3.75;;;3.20;;
61038;SDS011;46919;45.816;3.104;2023-02-28T11:38:53;6.30;;;3.85;;
61038;SDS011;46919;45.816;3.104;2023-02-28T11:47:15;4.32;;;3.35;;
61038;SDS011;46919;45.816;3.104;2023-02-28T11:52:30;4.97;;;4.38;;
61038;SDS011;46919;45.816;3.104;2023-02-28T11:55:17;4.80;;;4.30;;
61038;SDS011;46919;45.816;3.104;2023-02-28T12:11:44;7.18;;;4.57;;
61038;SDS011;46919;45.816;3.104;2023-02-28T12:14:21;5.13;;;3.92;;
61038;SDS011;46919;45.816;3.104;2023-02-28T12:17:03;8.25;;;4.18;;
61038;SDS011;46919;45.816;3.104;2023-02-28T12:20:04;5.18;;;4.28;;
61038;SDS011;46919;45.816;3.104;2023-02-28T12:28:09;5.35;;;3.97;;
61038;SDS011;46919;45.816;3.104;2023-02-28T12:30:37;5.05;;;4.00;;
61038;SDS011;46919;45.816;3.104;2023-02-28T12:33:12;6.13;;;4.03;;
61038;SDS011;46919;45.816;3.104;2023-02-28T12:35:48;6.10;;;4.65;;
61038;SDS011;46919;45.816;3.104;2023-02-28T12:38:27;9.75;;;6.53;;
61038;SDS011;46919;45.816;3.104;2023-02-28T12:41:02;7.13;;;4.20;;
61038;SDS011;46919;45.816;3.104;2023-02-28T12:43:33;9.35;;;4.28;;
61038;SDS011;46919;45.816;3.104;2023-02-28T12:46:14;5.97;;;4.18;;
61038;SDS011;46919;45.816;3.104;2023-02-28T12:48:47;6.38;;;4.72;;
61038;SDS011;46919;45.816;3.104;2023-02-28T12:51:17;4.70;;;4.20;;
61038;SDS011;46919;45.816;3.104;2023-02-28T12:58:58;6.72;;;4.60;;
61038;SDS011;46919;45.816;3.104;2023-02-28T13:01:38;5.45;;;4.28;;
61038;SDS011;46919;45.816;3.104;2023-02-28T13:09:25;5.03;;;4.18;;
61038;SDS011;46919;45.816;3.104;2023-02-28T13:11:51;4.35;;;3.95;;
61038;SDS011;46919;45.816;3.104;2023-02-28T13:19:19;5.97;;;4.60;;
61038;SDS011;46919;45.816;3.104;2023-02-28T13:21:48;5.45;;;4.63;;
61038;SDS011;46919;45.816;3.104;2023-02-28T13:24:37;5.28;;;4.40;;
61038;SDS011;46919;45.816;3.104;2023-02-28T13:29:32;4.57;;;3.78;;
61038;SDS011;46919;45.816;3.104;2023-02-28T13:34:32;5.43;;;4.30;;
61038;SDS011;46919;45.816;3.104;2023-02-28T13:42:36;4.93;;;3.70;;
61038;SDS011;46919;45.816;3.104;2023-02-28T13:58:41;6.60;;;4.25;;
61038;SDS011;46919;45.816;3.104;2023-02-28T14:06:59;5.38;;;4.53;;
61038;SDS011;46919;45.816;3.104;2023-02-28T14:09:34;4.53;;;3.80;;
61038;SDS011;46919;45.816;3.104;2023-02-28T14:17:56;5.00;;;4.13;;
61038;SDS011;46919;45.816;3.104;2023-02-28T14:20:25;5.20;;;4.22;;
61038;SDS011;46919;45.816;3.104;2023-02-28T14:26:05;5.18;;;4.10;;
61038;SDS011;46919;45.816;3.104;2023-02-28T14:31:34;6.50;;;4.55;;
61038;SDS011;46919;45.816;3.104;2023-02-28T14:36:46;6.30;;;4.80;;
61038;SDS011;46919;45.816;3.104;2023-02-28T14:39:16;13.10;;;7.50;;
61038;SDS011;46919;45.816;3.104;2023-02-28T14:41:46;9.35;;;6.20;;
61038;SDS011;46919;45.816;3.104;2023-02-28T14:44:22;6.25;;;4.93;;
61038;SDS011;46919;45.816;3.104;2023-02-28T14:46:49;9.05;;;5.35;;
61038;SDS011;46919;45.816;3.104;2023-02-28T14:49:20;8.48;;;5.25;;
61038;SDS011;46919;45.816;3.104;2023-02-28T14:52:01;12.05;;;5.57;;
61038;SDS011;46919;45.816;3.104;2023-02-28T14:54:27;5.22;;;4.53;;
61038;SDS011;46919;45.816;3.104;2023-02-28T14:56:54;6.78;;;4.22;;
61038;SDS011;46919;45.816;3.104;2023-02-28T14:59:24;5.85;;;4.22;;
61038;SDS011;46919;45.816;3.104;2023-02-28T15:07:42;5.55;;;3.85;;
61038;SDS011;46919;45.816;3.104;2023-02-28T15:10:16;6.63;;;5.22;;
61038;SDS011;46919;45.816;3.104;2023-02-28T15:15:15;6.97;;;4.72;;
61038;SDS011;46919;45.816;3.104;2023-02-28T15:17:42;8.82;;;4.60;;
61038;SDS011;46919;45.816;3.104;2023-02-28T15:20:14;5.70;;;5.03;;
61038;SDS011;46919;45.816;3.104;2023-02-28T15:22:41;5.90;;;5.03;;
61038;SDS011;46919;45.816;3.104;2023-02-28T15:25:07;8.95;;;5.00;;
61038;SDS011;46919;45.816;3.104;2023-02-28T15:27:39;8.85;;;5.07;;
61038;SDS011;46919;45.816;3.104;2023-02-28T15:30:17;5.83;;;4.43;;
61038;SDS011;46919;45.816;3.104;2023-02-28T15:32:46;5.30;;;4.20;;
61038;SDS011;46919;45.816;3.104;2023-02-28T15:35:33;6.43;;;4.63;;
61038;SDS011;46919;45.816;3.104;2023-02-28T15:40:33;8.20;;;5.50;;
61038;SDS011;46919;45.816;3.104;2023-02-28T15:45:55;7.57;;;5.18;;
61038;SDS011;46919;45.816;3.104;2023-02-28T15:48:23;7.68;;;5.18;;
61038;SDS011;46919;45.816;3.104;2023-02-28T15:53:41;7.38;;;4.60;;
61038;SDS011;46919;45.816;3.104;2023-02-28T15:56:25;7.32;;;4.88;;
61038;SDS011;46919;45.816;3.104;2023-02-28T15:58:54;7.85;;;5.00;;
61038;SDS011;46919;45.816;3.104;2023-02-28T16:01:25;8.30;;;5.40;;
61038;SDS011;46919;45.816;3.104;2023-02-28T16:03:56;6.90;;;5.38;;
61038;SDS011;46919;45.816;3.104;2023-02-28T16:06:32;8.95;;;5.75;;
61038;SDS011;46919;45.816;3.104;2023-02-28T16:09:05;10.52;;;5.75;;
61038;SDS011;46919;45.816;3.104;2023-02-28T16:11:34;6.90;;;5.28;;
61038;SDS011;46919;45.816;3.104;2023-02-28T16:14:03;7.97;;;4.68;;
61038;SDS011;46919;45.816;3.104;2023-02-28T16:16:29;9.45;;;6.65;;
61038;SDS011;46919;45.816;3.104;2023-02-28T16:18:56;8.27;;;5.15;;
61038;SDS011;46919;45.816;3.104;2023-02-28T16:21:22;6.28;;;4.93;;
61038;SDS011;46919;45.816;3.104;2023-02-28T16:23:48;7.63;;;4.72;;
61038;SDS011;46919;45.816;3.104;2023-02-28T16:26:21;7.78;;;5.20;;
61038;SDS011;46919;45.816;3.104;2023-02-28T16:28:48;6.53;;;4.90;;
61038;SDS011;46919;45.816;3.104;2023-02-28T16:31:13;7.82;;;4.80;;
61038;SDS011;46919;45.816;3.104;2023-02-28T16:33:41;5.80;;;4.70;;
61038;SDS011;46919;45.816;3.104;2023-02-28T16:36:16;7.10;;;4.55;;
61038;SDS011;46919;45.816;3.104;2023-02-28T16:38:43;5.78;;;4.93;;
61038;SDS011;46919;45.816;3.104;2023-02-28T16:41:19;5.55;;;4.80;;
61038;SDS011;46919;45.816;3.104;2023-02-28T16:43:47;5.50;;;4.68;;
61038;SDS011;46919;45.816;3.104;2023-02-28T16:46:15;5.60;;;4.78;;
61038;SDS011;46919;45.816;3.104;2023-02-28T16:48:41;9.65;;;4.80;;
61038;SDS011;46919;45.816;3.104;2023-02-28T16:51:11;6.15;;;4.85;;
61038;SDS011;46919;45.816;3.104;2023-02-28T16:53:40;7.88;;;5.75;;
61038;SDS011;46919;45.816;3.104;2023-02-28T16:56:06;9.02;;;5.25;;
61038;SDS011;46919;45.816;3.104;2023-02-28T16:58:37;7.82;;;5.65;;
61038;SDS011;46919;45.816;3.104;2023-02-28T17:01:03;6.35;;;5.10;;
61038;SDS011;46919;45.816;3.104;2023-02-28T17:03:29;7.30;;;4.32;;
61038;SDS011;46919;45.816;3.104;2023-02-28T17:05:54;5.90;;;4.75;;
61038;SDS011;46919;45.816;3.104;2023-02-28T17:08:20;6.50;;;4.88;;
61038;SDS011;46919;45.816;3.104;2023-02-28T17:10:46;10.40;;;5.60;;
61038;SDS011;46919;45.816;3.104;2023-02-28T17:13:11;7.20;;;5.55;;
61038;SDS011;46919;45.816;3.104;2023-02-28T17:15:36;8.25;;;5.90;;
61038;SDS011;46919;45.816;3.104;2023-02-28T17:18:03;9.13;;;5.85;;
61038;SDS011;46919;45.816;3.104;2023-02-28T17:20:29;10.50;;;6.35;;
61038;SDS011;46919;45.816;3.104;2023-02-28T17:22:55;10.88;;;6.60;;
61038;SDS011;46919;45.816;3.104;2023-02-28T17:25:21;10.15;;;6.32;;
61038;SDS011;46919;45.816;3.104;2023-02-28T17:27:48;8.85;;;6.03;;
61038;SDS011;46919;45.816;3.104;2023-02-28T17:32:41;10.02;;;5.80;;
61038;SDS011;46919;45.816;3.104;2023-02-28T17:35:07;7.28;;;5.70;;
61038;SDS011;46919;45.816;3.104;2023-02-28T17:37:33;8.32;;;5.72;;
61038;SDS011;46919;45.816;3.104;2023-02-28T17:39:58;13.23;;;7.05;;